sensor_id;sensor_type;location;lat;lon;timestamp;temperature;humidity
39983;DHT22;25670;44.782;10.356;2022-10-30T00:00:21;13.40;99.90
39983;DHT22;25670;44.782;10.356;2022-10-30T00:02:47;13.50;99.90
39983;DHT22;25670;44.782;10.356;2022-10-30T00:05:14;13.40;99.90
39983;DHT22;25670;44.782;10.356;2022-10-30T00:10:08;13.20;99.90
39983;DHT22;25670;44.782;10.356;2022-10-30T00:12:35;13.40;99.90
39983;DHT22;25670;44.782;10.356;2022-10-30T00:17:27;13.30;99.90
39983;DHT22;25670;44.782;10.356;2022-10-30T00:22:20;13.10;99.90
39983;DHT22;25670;44.782;10.356;2022-10-30T00:24:46;13.60;99.90
39983;DHT22;25670;44.782;10.356;2022-10-30T00:29:39;13.50;99.90
39983;DHT22;25670;44.782;10.356;2022-10-30T00:32:06;13.60;99.90
39983;DHT22;25670;44.782;10.356;2022-10-30T00:34:33;13.90;99.90
39983;DHT22;25670;44.782;10.356;2022-10-30T00:39:25;13.40;99.90
39983;DHT22;25670;44.782;10.356;2022-10-30T00:47:03;13.50;99.90
39983;DHT22;25670;44.782;10.356;2022-10-30T00:49:34;13.40;99.90
39983;DHT22;25670;44.782;10.356;2022-10-30T00:52:02;13.50;99.90
39983;DHT22;25670;44.782;10.356;2022-10-30T00:54:31;13.40;99.90
39983;DHT22;25670;44.782;10.356;2022-10-30T00:59:29;13.50;99.90
39983;DHT22;25670;44.782;10.356;2022-10-30T01:01:57;13.40;99.90
39983;DHT22;25670;44.782;10.356;2022-10-30T01:04:24;13.40;99.90
39983;DHT22;25670;44.782;10.356;2022-10-30T01:06:52;13.40;99.90
39983;DHT22;25670;44.782;10.356;2022-10-30T01:09:19;13.40;99.90
39983;DHT22;25670;44.782;10.356;2022-10-30T01:11:46;13.30;99.90
39983;DHT22;25670;44.782;10.356;2022-10-30T01:14:15;13.20;99.90
39983;DHT22;25670;44.782;10.356;2022-10-30T01:22:34;13.10;99.90
39983;DHT22;25670;44.782;10.356;2022-10-30T01:28:08;13.80;99.90
39983;DHT22;25670;44.782;10.356;2022-10-30T01:30:47;13.20;99.90
39983;DHT22;25670;44.782;10.356;2022-10-30T01:36:40;13.00;99.90
39983;DHT22;25670;44.782;10.356;2022-10-30T01:39:21;13.00;99.90
39983;DHT22;25670;44.782;10.356;2022-10-30T01:44:18;13.10;99.90
39983;DHT22;25670;44.782;10.356;2022-10-30T01:52:54;13.00;99.90
39983;DHT22;25670;44.782;10.356;2022-10-30T01:58:05;13.10;99.90
39983;DHT22;25670;44.782;10.356;2022-10-30T02:00:37;13.10;99.90
39983;DHT22;25670;44.782;10.356;2022-10-30T02:03:05;13.10;99.90
39983;DHT22;25670;44.782;10.356;2022-10-30T02:05:41;13.30;99.90
39983;DHT22;25670;44.782;10.356;2022-10-30T02:08:09;13.20;99.90
39983;DHT22;25670;44.782;10.356;2022-10-30T02:10:38;12.70;99.90
39983;DHT22;25670;44.782;10.356;2022-10-30T02:15:33;13.20;99.90
39983;DHT22;25670;44.782;10.356;2022-10-30T02:20:27;13.10;99.90
39983;DHT22;25670;44.782;10.356;2022-10-30T02:22:54;13.20;99.90
39983;DHT22;25670;44.782;10.356;2022-10-30T02:30:13;13.00;99.90
39983;DHT22;25670;44.782;10.356;2022-10-30T02:40:02;13.30;99.90
39983;DHT22;25670;44.782;10.356;2022-10-30T02:42:28;13.10;99.90
39983;DHT22;25670;44.782;10.356;2022-10-30T02:44:54;13.10;99.90
39983;DHT22;25670;44.782;10.356;2022-10-30T02:47:21;12.90;99.90
39983;DHT22;25670;44.782;10.356;2022-10-30T02:49:47;13.00;99.90
39983;DHT22;25670;44.782;10.356;2022-10-30T02:52:13;13.10;99.90
39983;DHT22;25670;44.782;10.356;2022-10-30T02:57:08;12.70;99.90
39983;DHT22;25670;44.782;10.356;2022-10-30T03:02:02;13.00;99.90
39983;DHT22;25670;44.782;10.356;2022-10-30T03:04:28;12.80;99.90
39983;DHT22;25670;44.782;10.356;2022-10-30T03:06:54;12.80;99.90
39983;DHT22;25670;44.782;10.356;2022-10-30T03:11:47;12.90;99.90
39983;DHT22;25670;44.782;10.356;2022-10-30T03:14:14;12.80;99.90
39983;DHT22;25670;44.782;10.356;2022-10-30T03:16:40;12.70;99.90
39983;DHT22;25670;44.782;10.356;2022-10-30T03:19:06;12.40;99.90
39983;DHT22;25670;44.782;10.356;2022-10-30T03:23:59;12.50;99.90
39983;DHT22;25670;44.782;10.356;2022-10-30T03:26:26;12.70;99.90
39983;DHT22;25670;44.782;10.356;2022-10-30T03:29:02;13.30;99.90
39983;DHT22;25670;44.782;10.356;2022-10-30T03:31:29;12.80;99.90
39983;DHT22;25670;44.782;10.356;2022-10-30T03:36:40;13.40;99.90
39983;DHT22;25670;44.782;10.356;2022-10-30T03:39:07;10.50;99.90
39983;DHT22;25670;44.782;10.356;2022-10-30T03:44:01;12.70;99.90
39983;DHT22;25670;44.782;10.356;2022-10-30T03:49:05;12.80;99.90
39983;DHT22;25670;44.782;10.356;2022-10-30T03:51:32;12.90;99.90
39983;DHT22;25670;44.782;10.356;2022-10-30T03:53:58;12.70;99.90
39983;DHT22;25670;44.782;10.356;2022-10-30T03:56:25;12.40;99.90
39983;DHT22;25670;44.782;10.356;2022-10-30T03:58:55;12.70;99.90
39983;DHT22;25670;44.782;10.356;2022-10-30T04:01:23;12.70;99.90
39983;DHT22;25670;44.782;10.356;2022-10-30T04:03:55;12.70;99.90
39983;DHT22;25670;44.782;10.356;2022-10-30T04:11:16;13.20;99.90
39983;DHT22;25670;44.782;10.356;2022-10-30T04:16:11;13.40;99.90
39983;DHT22;25670;44.782;10.356;2022-10-30T04:18:38;9.20;99.90
39983;DHT22;25670;44.782;10.356;2022-10-30T04:21:05;13.20;99.90
39983;DHT22;25670;44.782;10.356;2022-10-30T04:23:33;13.20;99.90
39983;DHT22;25670;44.782;10.356;2022-10-30T04:26:00;13.10;99.90
39983;DHT22;25670;44.782;10.356;2022-10-30T04:33:20;12.30;99.90
39983;DHT22;25670;44.782;10.356;2022-10-30T04:35:48;12.80;99.90
39983;DHT22;25670;44.782;10.356;2022-10-30T04:38:17;12.80;99.90
39983;DHT22;25670;44.782;10.356;2022-10-30T04:43:13;12.50;99.90
39983;DHT22;25670;44.782;10.356;2022-10-30T04:48:13;12.20;99.90
39983;DHT22;25670;44.782;10.356;2022-10-30T04:53:18;12.30;99.90
39983;DHT22;25670;44.782;10.356;2022-10-30T04:58:14;12.10;99.90
39983;DHT22;25670;44.782;10.356;2022-10-30T05:00:42;12.40;99.90
39983;DHT22;25670;44.782;10.356;2022-10-30T05:03:23;12.00;99.90
39983;DHT22;25670;44.782;10.356;2022-10-30T05:06:01;12.20;99.90
39983;DHT22;25670;44.782;10.356;2022-10-30T05:08:29;12.20;99.90
39983;DHT22;25670;44.782;10.356;2022-10-30T05:13:26;12.20;99.90
39983;DHT22;25670;44.782;10.356;2022-10-30T05:15:53;12.00;99.90
39983;DHT22;25670;44.782;10.356;2022-10-30T05:18:20;12.10;99.90
39983;DHT22;25670;44.782;10.356;2022-10-30T05:20:46;11.90;99.90
39983;DHT22;25670;44.782;10.356;2022-10-30T05:23:13;12.00;99.90
39983;DHT22;25670;44.782;10.356;2022-10-30T05:25:39;11.90;99.90
39983;DHT22;25670;44.782;10.356;2022-10-30T05:28:08;11.70;99.90
39983;DHT22;25670;44.782;10.356;2022-10-30T05:38:12;11.80;99.90
39983;DHT22;25670;44.782;10.356;2022-10-30T05:43:06;11.70;99.90
39983;DHT22;25670;44.782;10.356;2022-10-30T05:48:04;11.80;99.90
39983;DHT22;25670;44.782;10.356;2022-10-30T05:50:36;11.80;99.90
39983;DHT22;25670;44.782;10.356;2022-10-30T05:58:15;12.00;99.90
39983;DHT22;25670;44.782;10.356;2022-10-30T06:00:44;11.90;99.90
39983;DHT22;25670;44.782;10.356;2022-10-30T06:05:44;12.00;99.90
39983;DHT22;25670;44.782;10.356;2022-10-30T06:08:10;12.00;99.90
39983;DHT22;25670;44.782;10.356;2022-10-30T06:20:48;12.30;99.90
39983;DHT22;25670;44.782;10.356;2022-10-30T06:23:32;12.30;99.90
39983;DHT22;25670;44.782;10.356;2022-10-30T06:26:13;12.50;99.90
39983;DHT22;25670;44.782;10.356;2022-10-30T06:28:59;12.50;99.90
39983;DHT22;25670;44.782;10.356;2022-10-30T06:33:52;13.00;99.90
39983;DHT22;25670;44.782;10.356;2022-10-30T06:38:45;12.60;99.90
39983;DHT22;25670;44.782;10.356;2022-10-30T06:44:00;12.80;99.90
39983;DHT22;25670;44.782;10.356;2022-10-30T06:48:53;12.80;99.90
39983;DHT22;25670;44.782;10.356;2022-10-30T06:51:20;13.00;99.90
39983;DHT22;25670;44.782;10.356;2022-10-30T06:53:46;13.00;99.90
39983;DHT22;25670;44.782;10.356;2022-10-30T06:56:31;12.70;99.90
39983;DHT22;25670;44.782;10.356;2022-10-30T06:59:35;12.60;99.90
39983;DHT22;25670;44.782;10.356;2022-10-30T07:02:25;13.70;99.90
39983;DHT22;25670;44.782;10.356;2022-10-30T07:04:59;13.10;99.90
39983;DHT22;25670;44.782;10.356;2022-10-30T07:07:25;13.30;99.90
39983;DHT22;25670;44.782;10.356;2022-10-30T07:12:24;13.60;99.90
39983;DHT22;25670;44.782;10.356;2022-10-30T07:15:05;14.00;99.90
39983;DHT22;25670;44.782;10.356;2022-10-30T07:17:59;13.70;99.90
39983;DHT22;25670;44.782;10.356;2022-10-30T07:20:28;13.90;99.90
39983;DHT22;25670;44.782;10.356;2022-10-30T07:22:55;13.90;99.90
39983;DHT22;25670;44.782;10.356;2022-10-30T07:25:21;14.10;99.90
39983;DHT22;25670;44.782;10.356;2022-10-30T07:28:14;14.20;99.90
39983;DHT22;25670;44.782;10.356;2022-10-30T07:30:43;14.30;99.90
39983;DHT22;25670;44.782;10.356;2022-10-30T07:33:19;14.60;99.90
39983;DHT22;25670;44.782;10.356;2022-10-30T07:35:55;14.70;99.90
39983;DHT22;25670;44.782;10.356;2022-10-30T07:38:40;11.50;99.90
39983;DHT22;25670;44.782;10.356;2022-10-30T07:41:21;14.80;99.90
39983;DHT22;25670;44.782;10.356;2022-10-30T07:46:45;15.00;99.90
39983;DHT22;25670;44.782;10.356;2022-10-30T07:49:21;15.20;99.90
39983;DHT22;25670;44.782;10.356;2022-10-30T07:51:49;15.30;99.90
39983;DHT22;25670;44.782;10.356;2022-10-30T07:54:16;15.40;99.90
39983;DHT22;25670;44.782;10.356;2022-10-30T07:56:42;15.50;99.90
39983;DHT22;25670;44.782;10.356;2022-10-30T07:59:17;15.70;99.90
39983;DHT22;25670;44.782;10.356;2022-10-30T08:02:04;15.90;99.90
39983;DHT22;25670;44.782;10.356;2022-10-30T08:04:40;16.20;99.90
39983;DHT22;25670;44.782;10.356;2022-10-30T08:07:31;18.20;99.90
39983;DHT22;25670;44.782;10.356;2022-10-30T08:09:57;16.40;99.90
39983;DHT22;25670;44.782;10.356;2022-10-30T08:12:24;16.50;99.90
39983;DHT22;25670;44.782;10.356;2022-10-30T08:14:51;16.60;99.90
39983;DHT22;25670;44.782;10.356;2022-10-30T08:17:18;16.70;99.90
39983;DHT22;25670;44.782;10.356;2022-10-30T08:19:45;14.40;99.90
39983;DHT22;25670;44.782;10.356;2022-10-30T08:22:12;16.90;99.90
39983;DHT22;25670;44.782;10.356;2022-10-30T08:24:39;17.00;99.90
39983;DHT22;25670;44.782;10.356;2022-10-30T08:27:06;17.10;99.90
39983;DHT22;25670;44.782;10.356;2022-10-30T08:32:02;17.40;99.90
39983;DHT22;25670;44.782;10.356;2022-10-30T08:34:54;17.70;99.90
39983;DHT22;25670;44.782;10.356;2022-10-30T08:39:46;17.80;99.90
39983;DHT22;25670;44.782;10.356;2022-10-30T08:42:30;17.80;99.90
39983;DHT22;25670;44.782;10.356;2022-10-30T08:44:58;17.90;99.90
39983;DHT22;25670;44.782;10.356;2022-10-30T08:47:33;18.00;99.90
39983;DHT22;25670;44.782;10.356;2022-10-30T08:52:30;18.20;99.90
39983;DHT22;25670;44.782;10.356;2022-10-30T08:54:56;18.30;99.90
39983;DHT22;25670;44.782;10.356;2022-10-30T08:57:26;18.30;99.90
39983;DHT22;25670;44.782;10.356;2022-10-30T08:59:54;18.40;99.90
39983;DHT22;25670;44.782;10.356;2022-10-30T09:02:41;18.40;99.90
39983;DHT22;25670;44.782;10.356;2022-10-30T09:05:39;18.60;99.90
39983;DHT22;25670;44.782;10.356;2022-10-30T09:08:27;19.80;99.90
39983;DHT22;25670;44.782;10.356;2022-10-30T09:11:07;18.90;99.90
39983;DHT22;25670;44.782;10.356;2022-10-30T09:13:33;19.20;99.90
39983;DHT22;25670;44.782;10.356;2022-10-30T09:16:02;18.90;99.90
39983;DHT22;25670;44.782;10.356;2022-10-30T09:18:30;19.00;99.90
39983;DHT22;25670;44.782;10.356;2022-10-30T09:20:57;19.10;99.90
39983;DHT22;25670;44.782;10.356;2022-10-30T09:23:24;19.20;99.90
39983;DHT22;25670;44.782;10.356;2022-10-30T09:25:59;19.40;99.90
39983;DHT22;25670;44.782;10.356;2022-10-30T09:28:51;19.50;99.90
39983;DHT22;25670;44.782;10.356;2022-10-30T09:31:44;19.60;99.90
39983;DHT22;25670;44.782;10.356;2022-10-30T09:34:15;19.70;99.90
39983;DHT22;25670;44.782;10.356;2022-10-30T09:36:45;19.70;99.90
39983;DHT22;25670;44.782;10.356;2022-10-30T09:39:13;19.80;99.90
39983;DHT22;25670;44.782;10.356;2022-10-30T09:48:14;20.00;99.90
39983;DHT22;25670;44.782;10.356;2022-10-30T09:53:55;20.30;99.90
39983;DHT22;25670;44.782;10.356;2022-10-30T09:56:48;20.40;99.90
39983;DHT22;25670;44.782;10.356;2022-10-30T10:02:03;20.60;99.90
39983;DHT22;25670;44.782;10.356;2022-10-30T10:04:42;20.70;99.90
39983;DHT22;25670;44.782;10.356;2022-10-30T10:09:53;20.70;99.90
39983;DHT22;25670;44.782;10.356;2022-10-30T10:12:50;20.80;99.90
39983;DHT22;25670;44.782;10.356;2022-10-30T10:18:01;20.90;99.90
39983;DHT22;25670;44.782;10.356;2022-10-30T10:20:38;21.00;99.90
39983;DHT22;25670;44.782;10.356;2022-10-30T10:23:45;21.00;99.90
39983;DHT22;25670;44.782;10.356;2022-10-30T10:29:20;21.10;99.90
39983;DHT22;25670;44.782;10.356;2022-10-30T10:32:06;21.30;99.90
39983;DHT22;25670;44.782;10.356;2022-10-30T10:49:06;21.70;99.90
39983;DHT22;25670;44.782;10.356;2022-10-30T10:51:44;21.80;99.90
39983;DHT22;25670;44.782;10.356;2022-10-30T10:54:20;21.90;99.90
39983;DHT22;25670;44.782;10.356;2022-10-30T10:56:49;22.00;99.90
39983;DHT22;25670;44.782;10.356;2022-10-30T11:01:57;22.20;99.90
39983;DHT22;25670;44.782;10.356;2022-10-30T11:07:32;22.30;99.90
39983;DHT22;25670;44.782;10.356;2022-10-30T11:09:56;22.30;99.90
39983;DHT22;25670;44.782;10.356;2022-10-30T11:12:36;22.40;99.90
39983;DHT22;25670;44.782;10.356;2022-10-30T11:15:55;22.70;99.90
39983;DHT22;25670;44.782;10.356;2022-10-30T11:18:05;22.50;99.90
39983;DHT22;25670;44.782;10.356;2022-10-30T11:20:55;22.50;99.90
39983;DHT22;25670;44.782;10.356;2022-10-30T11:23:36;22.60;99.90
39983;DHT22;25670;44.782;10.356;2022-10-30T11:26:26;22.70;99.90
39983;DHT22;25670;44.782;10.356;2022-10-30T11:36:42;22.90;99.90
39983;DHT22;25670;44.782;10.356;2022-10-30T11:39:10;23.00;99.90
39983;DHT22;25670;44.782;10.356;2022-10-30T11:41:38;23.00;99.90
39983;DHT22;25670;44.782;10.356;2022-10-30T11:44:05;23.10;99.90
39983;DHT22;25670;44.782;10.356;2022-10-30T11:46:32;23.30;99.90
39983;DHT22;25670;44.782;10.356;2022-10-30T11:49:00;23.40;99.90
39983;DHT22;25670;44.782;10.356;2022-10-30T11:51:31;23.50;99.90
39983;DHT22;25670;44.782;10.356;2022-10-30T11:53:59;23.60;99.90
39983;DHT22;25670;44.782;10.356;2022-10-30T11:56:26;23.80;99.90
39983;DHT22;25670;44.782;10.356;2022-10-30T11:58:56;23.80;99.90
39983;DHT22;25670;44.782;10.356;2022-10-30T12:01:34;23.90;99.90
39983;DHT22;25670;44.782;10.356;2022-10-30T12:04:22;24.00;99.90
39983;DHT22;25670;44.782;10.356;2022-10-30T12:09:44;24.60;99.90
39983;DHT22;25670;44.782;10.356;2022-10-30T12:12:31;25.10;99.90
39983;DHT22;25670;44.782;10.356;2022-10-30T12:15:25;25.60;99.90
39983;DHT22;25670;44.782;10.356;2022-10-30T12:18:03;26.40;99.90
39983;DHT22;25670;44.782;10.356;2022-10-30T12:20:32;26.60;99.90
39983;DHT22;25670;44.782;10.356;2022-10-30T12:23:17;27.00;99.90
39983;DHT22;25670;44.782;10.356;2022-10-30T12:25:50;27.30;99.90
39983;DHT22;25670;44.782;10.356;2022-10-30T12:28:20;27.80;99.90
39983;DHT22;25670;44.782;10.356;2022-10-30T12:33:31;28.20;99.90
39983;DHT22;25670;44.782;10.356;2022-10-30T12:36:11;28.60;99.90
39983;DHT22;25670;44.782;10.356;2022-10-30T12:38:51;29.20;99.90
39983;DHT22;25670;44.782;10.356;2022-10-30T12:41:29;29.50;99.90
39983;DHT22;25670;44.782;10.356;2022-10-30T12:47:00;30.20;99.90
39983;DHT22;25670;44.782;10.356;2022-10-30T12:49:50;30.50;99.90
39983;DHT22;25670;44.782;10.356;2022-10-30T12:53:00;30.80;99.90
39983;DHT22;25670;44.782;10.356;2022-10-30T12:55:33;31.30;99.90
39983;DHT22;25670;44.782;10.356;2022-10-30T12:58:08;31.40;99.40
39983;DHT22;25670;44.782;10.356;2022-10-30T13:00:49;31.70;99.60
39983;DHT22;25670;44.782;10.356;2022-10-30T13:03:30;31.60;98.60
39983;DHT22;25670;44.782;10.356;2022-10-30T13:11:35;32.30;96.80
39983;DHT22;25670;44.782;10.356;2022-10-30T13:14:04;32.30;96.80
39983;DHT22;25670;44.782;10.356;2022-10-30T13:16:36;32.60;96.30
39983;DHT22;25670;44.782;10.356;2022-10-30T13:19:04;33.00;95.70
39983;DHT22;25670;44.782;10.356;2022-10-30T13:21:34;33.10;95.00
39983;DHT22;25670;44.782;10.356;2022-10-30T13:26:46;33.60;94.70
39983;DHT22;25670;44.782;10.356;2022-10-30T13:29:33;33.90;94.30
39983;DHT22;25670;44.782;10.356;2022-10-30T13:37:42;34.90;91.60
39983;DHT22;25670;44.782;10.356;2022-10-30T13:40:45;34.70;91.50
39983;DHT22;25670;44.782;10.356;2022-10-30T13:51:48;35.60;88.80
39983;DHT22;25670;44.782;10.356;2022-10-30T13:54:32;35.50;88.50
39983;DHT22;25670;44.782;10.356;2022-10-30T13:59:46;36.00;87.50
39983;DHT22;25670;44.782;10.356;2022-10-30T14:07:44;35.60;86.90
39983;DHT22;25670;44.782;10.356;2022-10-30T14:10:15;35.30;87.00
39983;DHT22;25670;44.782;10.356;2022-10-30T14:12:51;34.70;86.90
39983;DHT22;25670;44.782;10.356;2022-10-30T14:15:41;34.90;88.30
39983;DHT22;25670;44.782;10.356;2022-10-30T14:20:37;35.20;86.80
39983;DHT22;25670;44.782;10.356;2022-10-30T14:23:35;35.60;85.90
39983;DHT22;25670;44.782;10.356;2022-10-30T14:28:36;36.10;86.10
39983;DHT22;25670;44.782;10.356;2022-10-30T14:44:26;35.90;84.90
39983;DHT22;25670;44.782;10.356;2022-10-30T14:47:23;35.50;84.00
39983;DHT22;25670;44.782;10.356;2022-10-30T14:58:21;35.20;85.10
39983;DHT22;25670;44.782;10.356;2022-10-30T15:00:49;35.50;84.30
39983;DHT22;25670;44.782;10.356;2022-10-30T15:03:26;35.20;85.00
39983;DHT22;25670;44.782;10.356;2022-10-30T15:06:12;34.50;86.50
39983;DHT22;25670;44.782;10.356;2022-10-30T15:14:19;33.60;85.70
39983;DHT22;25670;44.782;10.356;2022-10-30T15:16:49;33.40;85.80
39983;DHT22;25670;44.782;10.356;2022-10-30T15:19:16;32.50;85.90
39983;DHT22;25670;44.782;10.356;2022-10-30T15:21:47;31.40;87.20
39983;DHT22;25670;44.782;10.356;2022-10-30T15:24:15;30.20;89.00
39983;DHT22;25670;44.782;10.356;2022-10-30T15:26:48;29.50;90.00
39983;DHT22;25670;44.782;10.356;2022-10-30T15:29:29;28.80;91.50
39983;DHT22;25670;44.782;10.356;2022-10-30T15:31:58;26.50;91.40
39983;DHT22;25670;44.782;10.356;2022-10-30T15:34:26;27.30;92.70
39983;DHT22;25670;44.782;10.356;2022-10-30T15:36:53;26.80;93.10
39983;DHT22;25670;44.782;10.356;2022-10-30T15:39:19;26.30;95.00
39983;DHT22;25670;44.782;10.356;2022-10-30T15:41:49;25.20;97.50
39983;DHT22;25670;44.782;10.356;2022-10-30T15:44:20;24.70;99.10
39983;DHT22;25670;44.782;10.356;2022-10-30T15:46:52;24.90;98.50
39983;DHT22;25670;44.782;10.356;2022-10-30T15:49:39;24.50;99.50
39983;DHT22;25670;44.782;10.356;2022-10-30T15:52:20;23.50;99.90
39983;DHT22;25670;44.782;10.356;2022-10-30T15:54:55;22.60;99.90
39983;DHT22;25670;44.782;10.356;2022-10-30T15:57:32;22.70;99.90
39983;DHT22;25670;44.782;10.356;2022-10-30T16:00:05;21.80;99.90
39983;DHT22;25670;44.782;10.356;2022-10-30T16:02:33;22.40;99.90
39983;DHT22;25670;44.782;10.356;2022-10-30T16:07:28;21.30;99.90
39983;DHT22;25670;44.782;10.356;2022-10-30T16:09:56;21.00;99.90
39983;DHT22;25670;44.782;10.356;2022-10-30T16:12:25;20.80;99.90
39983;DHT22;25670;44.782;10.356;2022-10-30T16:14:55;20.50;99.90
39983;DHT22;25670;44.782;10.356;2022-10-30T16:17:23;20.20;99.90
39983;DHT22;25670;44.782;10.356;2022-10-30T16:19:52;19.90;99.90
39983;DHT22;25670;44.782;10.356;2022-10-30T16:22:27;19.90;99.90
39983;DHT22;25670;44.782;10.356;2022-10-30T16:24:55;19.50;99.90
39983;DHT22;25670;44.782;10.356;2022-10-30T16:27:23;18.70;99.90
39983;DHT22;25670;44.782;10.356;2022-10-30T16:30:00;19.20;99.90
39983;DHT22;25670;44.782;10.356;2022-10-30T16:32:29;18.80;99.90
39983;DHT22;25670;44.782;10.356;2022-10-30T16:35:00;18.80;99.90
39983;DHT22;25670;44.782;10.356;2022-10-30T16:37:38;18.40;99.90
39983;DHT22;25670;44.782;10.356;2022-10-30T16:40:15;18.20;99.90
39983;DHT22;25670;44.782;10.356;2022-10-30T16:42:50;18.20;99.90
39983;DHT22;25670;44.782;10.356;2022-10-30T16:45:45;18.10;99.90
39983;DHT22;25670;44.782;10.356;2022-10-30T16:48:17;18.00;99.90
39983;DHT22;25670;44.782;10.356;2022-10-30T16:53:18;17.70;99.90
39983;DHT22;25670;44.782;10.356;2022-10-30T16:58:12;17.70;99.90
39983;DHT22;25670;44.782;10.356;2022-10-30T17:00:41;17.60;99.90
39983;DHT22;25670;44.782;10.356;2022-10-30T17:05:40;17.40;99.90
39983;DHT22;25670;44.782;10.356;2022-10-30T17:13:54;17.20;99.90
39983;DHT22;25670;44.782;10.356;2022-10-30T17:16:33;17.40;99.90
39983;DHT22;25670;44.782;10.356;2022-10-30T17:20:10;17.40;99.90
39983;DHT22;25670;44.782;10.356;2022-10-30T17:22:09;17.60;99.90
39983;DHT22;25670;44.782;10.356;2022-10-30T17:24:39;17.60;99.90
39983;DHT22;25670;44.782;10.356;2022-10-30T17:27:30;17.60;99.90
39983;DHT22;25670;44.782;10.356;2022-10-30T17:32:41;17.60;99.90
39983;DHT22;25670;44.782;10.356;2022-10-30T17:35:15;17.60;99.90
39983;DHT22;25670;44.782;10.356;2022-10-30T17:37:43;17.60;99.90
39983;DHT22;25670;44.782;10.356;2022-10-30T17:40:10;17.60;99.90
39983;DHT22;25670;44.782;10.356;2022-10-30T17:45:04;17.60;99.90
39983;DHT22;25670;44.782;10.356;2022-10-30T17:47:36;17.50;99.90
39983;DHT22;25670;44.782;10.356;2022-10-30T17:50:03;17.60;99.90
39983;DHT22;25670;44.782;10.356;2022-10-30T17:52:31;17.40;99.90
39983;DHT22;25670;44.782;10.356;2022-10-30T17:54:59;17.40;99.90
39983;DHT22;25670;44.782;10.356;2022-10-30T18:02:21;17.20;99.90
39983;DHT22;25670;44.782;10.356;2022-10-30T18:04:48;17.20;99.90
39983;DHT22;25670;44.782;10.356;2022-10-30T18:07:15;17.10;99.90
39983;DHT22;25670;44.782;10.356;2022-10-30T18:09:42;17.10;99.90
39983;DHT22;25670;44.782;10.356;2022-10-30T18:12:14;17.30;99.90
39983;DHT22;25670;44.782;10.356;2022-10-30T18:14:41;17.20;99.90
39983;DHT22;25670;44.782;10.356;2022-10-30T18:17:09;17.10;99.90
39983;DHT22;25670;44.782;10.356;2022-10-30T18:22:02;17.00;99.90
39983;DHT22;25670;44.782;10.356;2022-10-30T18:31:49;16.80;99.90
39983;DHT22;25670;44.782;10.356;2022-10-30T18:34:17;16.70;99.90
39983;DHT22;25670;44.782;10.356;2022-10-30T18:36:47;16.60;99.90
39983;DHT22;25670;44.782;10.356;2022-10-30T18:41:42;16.60;99.90
39983;DHT22;25670;44.782;10.356;2022-10-30T18:44:17;16.50;99.90
39983;DHT22;25670;44.782;10.356;2022-10-30T18:46:44;16.50;99.90
39983;DHT22;25670;44.782;10.356;2022-10-30T18:49:11;14.60;99.90
39983;DHT22;25670;44.782;10.356;2022-10-30T18:51:37;16.30;99.90
39983;DHT22;25670;44.782;10.356;2022-10-30T18:54:12;16.30;99.90
39983;DHT22;25670;44.782;10.356;2022-10-30T19:03:59;16.00;99.90
39983;DHT22;25670;44.782;10.356;2022-10-30T19:06:29;16.00;99.90
39983;DHT22;25670;44.782;10.356;2022-10-30T19:08:55;15.90;99.90
39983;DHT22;25670;44.782;10.356;2022-10-30T19:13:48;15.80;99.90
39983;DHT22;25670;44.782;10.356;2022-10-30T19:16:16;15.70;99.90
39983;DHT22;25670;44.782;10.356;2022-10-30T19:18:44;15.50;99.90
39983;DHT22;25670;44.782;10.356;2022-10-30T19:21:16;15.60;99.90
39983;DHT22;25670;44.782;10.356;2022-10-30T19:33:29;15.90;99.90
39983;DHT22;25670;44.782;10.356;2022-10-30T19:36:01;15.60;99.90
39983;DHT22;25670;44.782;10.356;2022-10-30T19:38:30;15.60;99.90
39983;DHT22;25670;44.782;10.356;2022-10-30T19:45:54;15.40;99.90
39983;DHT22;25670;44.782;10.356;2022-10-30T19:48:21;15.50;99.90
39983;DHT22;25670;44.782;10.356;2022-10-30T19:53:14;15.50;99.90
39983;DHT22;25670;44.782;10.356;2022-10-30T19:55:41;15.40;99.90
39983;DHT22;25670;44.782;10.356;2022-10-30T19:58:14;15.30;99.90
39983;DHT22;25670;44.782;10.356;2022-10-30T20:00:43;15.30;99.90
39983;DHT22;25670;44.782;10.356;2022-10-30T20:03:12;15.20;99.90
39983;DHT22;25670;44.782;10.356;2022-10-30T20:05:44;15.20;99.90
39983;DHT22;25670;44.782;10.356;2022-10-30T20:10:39;15.10;99.90
39983;DHT22;25670;44.782;10.356;2022-10-30T20:13:07;15.10;99.90
39983;DHT22;25670;44.782;10.356;2022-10-30T20:15:34;14.90;99.90
39983;DHT22;25670;44.782;10.356;2022-10-30T20:18:01;15.00;99.90
39983;DHT22;25670;44.782;10.356;2022-10-30T20:25:22;15.00;99.90
39983;DHT22;25670;44.782;10.356;2022-10-30T20:27:50;15.10;99.90
39983;DHT22;25670;44.782;10.356;2022-10-30T20:30:21;15.50;99.90
39983;DHT22;25670;44.782;10.356;2022-10-30T20:32:48;15.00;99.90
39983;DHT22;25670;44.782;10.356;2022-10-30T20:35:19;15.20;99.90
39983;DHT22;25670;44.782;10.356;2022-10-30T20:37:58;14.90;99.90
39983;DHT22;25670;44.782;10.356;2022-10-30T20:40:25;15.00;99.90
39983;DHT22;25670;44.782;10.356;2022-10-30T20:45:23;14.90;99.90
39983;DHT22;25670;44.782;10.356;2022-10-30T20:47:49;15.00;99.90
39983;DHT22;25670;44.782;10.356;2022-10-30T20:50:16;15.00;99.90
39983;DHT22;25670;44.782;10.356;2022-10-30T20:52:43;14.90;99.90
39983;DHT22;25670;44.782;10.356;2022-10-30T20:55:10;14.90;99.90
39983;DHT22;25670;44.782;10.356;2022-10-30T21:00:04;14.90;99.90
39983;DHT22;25670;44.782;10.356;2022-10-30T21:14:45;14.90;99.90
39983;DHT22;25670;44.782;10.356;2022-10-30T21:22:04;14.80;99.90
39983;DHT22;25670;44.782;10.356;2022-10-30T21:24:30;14.90;99.90
39983;DHT22;25670;44.782;10.356;2022-10-30T21:26:58;14.70;99.90
39983;DHT22;25670;44.782;10.356;2022-10-30T21:29:24;14.70;99.90
39983;DHT22;25670;44.782;10.356;2022-10-30T21:34:17;15.00;99.90
39983;DHT22;25670;44.782;10.356;2022-10-30T21:49:02;14.60;99.90
39983;DHT22;25670;44.782;10.356;2022-10-30T21:53:55;14.70;99.90
39983;DHT22;25670;44.782;10.356;2022-10-30T21:56:27;14.50;99.90
39983;DHT22;25670;44.782;10.356;2022-10-30T21:58:58;14.60;99.90
39983;DHT22;25670;44.782;10.356;2022-10-30T22:01:29;14.90;99.90
39983;DHT22;25670;44.782;10.356;2022-10-30T22:04:00;14.90;99.90
39983;DHT22;25670;44.782;10.356;2022-10-30T22:06:27;14.50;99.90
39983;DHT22;25670;44.782;10.356;2022-10-30T22:08:55;14.50;99.90
39983;DHT22;25670;44.782;10.356;2022-10-30T22:11:24;14.20;99.90